sensor_id;sensor_type;location;lat;lon;timestamp;pressure;altitude;pressure_sealevel;temperature;humidity
38718;BME280;24468;52.128;9.278;2023-09-18T00:01:55;100121.59;;;20.36;100.00
38718;BME280;24468;52.128;9.278;2023-09-18T00:04:21;100113.09;;;20.39;100.00
38718;BME280;24468;52.128;9.278;2023-09-18T00:06:46;100100.84;;;20.43;100.00
38718;BME280;24468;52.128;9.278;2023-09-18T00:09:12;100095.94;;;20.47;100.00
38718;BME280;24468;52.128;9.278;2023-09-18T00:11:39;100098.56;;;20.49;100.00
38718;BME280;24468;52.128;9.278;2023-09-18T00:18:58;100086.69;;;20.48;100.00
38718;BME280;24468;52.128;9.278;2023-09-18T00:21:23;100082.09;;;20.49;100.00
38718;BME280;24468;52.128;9.278;2023-09-18T00:23:51;100072.56;;;20.53;100.00
38718;BME280;24468;52.128;9.278;2023-09-18T00:26:17;100069.97;;;20.51;100.00
38718;BME280;24468;52.128;9.278;2023-09-18T00:28:42;100061.34;;;20.56;100.00
38718;BME280;24468;52.128;9.278;2023-09-18T00:31:08;100062.22;;;20.56;100.00
38718;BME280;24468;52.128;9.278;2023-09-18T00:33:34;100059.34;;;20.58;100.00
38718;BME280;24468;52.128;9.278;2023-09-18T00:36:00;100075.34;;;20.82;100.00
38718;BME280;24468;52.128;9.278;2023-09-18T00:38:26;100062.66;;;20.71;100.00
38718;BME280;24468;52.128;9.278;2023-09-18T00:40:51;100051.69;;;20.71;100.00
38718;BME280;24468;52.128;9.278;2023-09-18T00:43:17;100051.41;;;20.74;100.00
38718;BME280;24468;52.128;9.278;2023-09-18T00:45:45;100045.19;;;20.82;100.00
38718;BME280;24468;52.128;9.278;2023-09-18T00:48:17;100045.75;;;20.76;100.00
38718;BME280;24468;52.128;9.278;2023-09-18T00:50:44;100034.53;;;20.69;100.00
38718;BME280;24468;52.128;9.278;2023-09-18T00:53:20;100028.31;;;20.67;100.00
38718;BME280;24468;52.128;9.278;2023-09-18T00:55:47;100024.75;;;20.57;100.00
38718;BME280;24468;52.128;9.278;2023-09-18T00:58:13;100018.34;;;20.37;100.00
38718;BME280;24468;52.128;9.278;2023-09-18T01:00:39;100004.66;;;20.47;100.00
38718;BME280;24468;52.128;9.278;2023-09-18T01:03:05;100001.91;;;20.47;100.00
38718;BME280;24468;52.128;9.278;2023-09-18T01:05:34;100004.66;;;20.37;100.00
38718;BME280;24468;52.128;9.278;2023-09-18T01:08:01;100000.19;;;20.36;100.00
38718;BME280;24468;52.128;9.278;2023-09-18T01:10:53;99999.47;;;20.34;100.00
38718;BME280;24468;52.128;9.278;2023-09-18T01:13:30;99986.19;;;20.29;100.00
38718;BME280;24468;52.128;9.278;2023-09-18T01:16:17;99989.09;;;20.28;100.00
38718;BME280;24468;52.128;9.278;2023-09-18T01:18:50;99981.13;;;20.34;100.00
38718;BME280;24468;52.128;9.278;2023-09-18T01:21:16;99988.38;;;20.35;100.00
38718;BME280;24468;52.128;9.278;2023-09-18T01:23:42;99989.34;;;20.34;100.00
38718;BME280;24468;52.128;9.278;2023-09-18T01:26:07;99984.63;;;20.27;100.00
38718;BME280;24468;52.128;9.278;2023-09-18T01:28:33;99995.16;;;20.21;100.00
38718;BME280;24468;52.128;9.278;2023-09-18T01:30:58;99979.09;;;20.07;100.00
38718;BME280;24468;52.128;9.278;2023-09-18T01:33:25;99979.13;;;19.97;100.00
38718;BME280;24468;52.128;9.278;2023-09-18T01:35:52;99972.19;;;19.93;100.00
38718;BME280;24468;52.128;9.278;2023-09-18T01:38:21;99974.78;;;19.95;100.00
38718;BME280;24468;52.128;9.278;2023-09-18T01:40:47;99973.03;;;19.84;100.00
38718;BME280;24468;52.128;9.278;2023-09-18T01:43:13;99965.34;;;19.59;100.00
38718;BME280;24468;52.128;9.278;2023-09-18T01:45:39;99964.59;;;19.57;100.00
38718;BME280;24468;52.128;9.278;2023-09-18T01:48:05;99959.69;;;19.50;100.00
38718;BME280;24468;52.128;9.278;2023-09-18T01:50:31;99968.25;;;19.36;100.00
38718;BME280;24468;52.128;9.278;2023-09-18T01:52:59;99954.63;;;19.46;100.00
38718;BME280;24468;52.128;9.278;2023-09-18T01:55:24;99951.91;;;19.46;100.00
38718;BME280;24468;52.128;9.278;2023-09-18T01:57:50;99941.22;;;19.43;100.00
38718;BME280;24468;52.128;9.278;2023-09-18T02:00:16;99938.09;;;19.47;100.00
38718;BME280;24468;52.128;9.278;2023-09-18T02:02:41;99925.97;;;19.40;100.00
38718;BME280;24468;52.128;9.278;2023-09-18T02:05:07;99927.84;;;19.40;100.00
38718;BME280;24468;52.128;9.278;2023-09-18T02:07:32;99929.44;;;19.42;100.00
38718;BME280;24468;52.128;9.278;2023-09-18T02:09:58;99923.38;;;19.48;100.00
38718;BME280;24468;52.128;9.278;2023-09-18T02:12:23;99917.06;;;19.48;100.00
38718;BME280;24468;52.128;9.278;2023-09-18T02:14:49;99921.22;;;19.52;100.00
38718;BME280;24468;52.128;9.278;2023-09-18T02:17:15;99919.34;;;19.52;100.00
38718;BME280;24468;52.128;9.278;2023-09-18T02:19:41;99916.53;;;19.64;100.00
38718;BME280;24468;52.128;9.278;2023-09-18T02:22:06;99913.13;;;20.01;100.00
38718;BME280;24468;52.128;9.278;2023-09-18T02:24:32;99919.16;;;19.75;100.00
38718;BME280;24468;52.128;9.278;2023-09-18T02:26:57;99905.31;;;19.96;100.00
38718;BME280;24468;52.128;9.278;2023-09-18T02:29:23;99901.72;;;19.95;100.00
38718;BME280;24468;52.128;9.278;2023-09-18T02:31:48;99909.78;;;19.87;100.00
38718;BME280;24468;52.128;9.278;2023-09-18T02:34:14;99900.84;;;19.85;100.00
38718;BME280;24468;52.128;9.278;2023-09-18T02:36:39;99911.66;;;19.77;100.00
38718;BME280;24468;52.128;9.278;2023-09-18T02:39:05;99900.69;;;19.77;100.00
38718;BME280;24468;52.128;9.278;2023-09-18T02:41:30;99898.41;;;19.82;100.00
38718;BME280;24468;52.128;9.278;2023-09-18T02:43:56;99899.00;;;19.86;100.00
38718;BME280;24468;52.128;9.278;2023-09-18T02:46:21;99896.69;;;19.81;100.00
38718;BME280;24468;52.128;9.278;2023-09-18T02:48:47;99897.97;;;19.67;100.00
38718;BME280;24468;52.128;9.278;2023-09-18T02:51:12;99896.09;;;19.68;100.00
38718;BME280;24468;52.128;9.278;2023-09-18T02:53:38;99887.75;;;19.69;100.00
38718;BME280;24468;52.128;9.278;2023-09-18T02:56:03;99890.34;;;19.71;100.00
38718;BME280;24468;52.128;9.278;2023-09-18T02:58:29;99887.75;;;19.69;100.00
38718;BME280;24468;52.128;9.278;2023-09-18T03:00:57;99887.00;;;19.77;100.00
38718;BME280;24468;52.128;9.278;2023-09-18T03:03:23;99887.31;;;19.74;100.00
38718;BME280;24468;52.128;9.278;2023-09-18T03:05:50;99884.56;;;19.74;100.00
38718;BME280;24468;52.128;9.278;2023-09-18T03:08:15;99881.41;;;19.79;100.00
38718;BME280;24468;52.128;9.278;2023-09-18T03:10:42;99881.72;;;19.75;100.00
38718;BME280;24468;52.128;9.278;2023-09-18T03:13:10;99879.09;;;19.74;100.00
38718;BME280;24468;52.128;9.278;2023-09-18T03:15:36;99865.25;;;19.66;100.00
38718;BME280;24468;52.128;9.278;2023-09-18T03:18:03;99868.53;;;19.60;100.00
38718;BME280;24468;52.128;9.278;2023-09-18T03:20:30;99860.50;;;19.58;100.00
38718;BME280;24468;52.128;9.278;2023-09-18T03:22:59;99850.81;;;19.44;100.00
38718;BME280;24468;52.128;9.278;2023-09-18T03:25:25;99848.47;;;19.20;100.00
38718;BME280;24468;52.128;9.278;2023-09-18T03:27:53;99842.03;;;19.31;100.00
38718;BME280;24468;52.128;9.278;2023-09-18T03:30:21;99847.91;;;19.36;100.00
38718;BME280;24468;52.128;9.278;2023-09-18T03:32:48;99838.72;;;19.37;100.00
38718;BME280;24468;52.128;9.278;2023-09-18T03:35:17;99827.63;;;19.39;100.00
38718;BME280;24468;52.128;9.278;2023-09-18T03:37:48;99819.00;;;19.43;100.00
38718;BME280;24468;52.128;9.278;2023-09-18T03:40:14;99820.16;;;19.41;100.00
38718;BME280;24468;52.128;9.278;2023-09-18T03:42:40;99814.66;;;19.41;100.00
38718;BME280;24468;52.128;9.278;2023-09-18T03:45:07;99808.78;;;19.45;100.00
38718;BME280;24468;52.128;9.278;2023-09-18T03:47:38;99806.19;;;19.34;100.00
38718;BME280;24468;52.128;9.278;2023-09-18T03:50:08;99803.41;;;19.24;100.00
38718;BME280;24468;52.128;9.278;2023-09-18T03:52:35;99786.59;;;19.39;100.00
38718;BME280;24468;52.128;9.278;2023-09-18T03:55:01;99788.63;;;19.37;100.00
38718;BME280;24468;52.128;9.278;2023-09-18T03:57:26;99788.63;;;19.37;100.00
38718;BME280;24468;52.128;9.278;2023-09-18T03:59:52;99774.78;;;19.38;100.00
38718;BME280;24468;52.128;9.278;2023-09-18T04:02:18;99769.19;;;19.40;100.00
38718;BME280;24468;52.128;9.278;2023-09-18T04:04:43;99766.59;;;19.38;100.00
38718;BME280;24468;52.128;9.278;2023-09-18T04:07:09;99762.13;;;19.37;100.00
38718;BME280;24468;52.128;9.278;2023-09-18T04:09:35;99764.88;;;19.37;100.00
38718;BME280;24468;52.128;9.278;2023-09-18T04:12:02;99748.91;;;19.42;100.00
38718;BME280;24468;52.128;9.278;2023-09-18T04:14:28;99746.84;;;19.44;100.00
38718;BME280;24468;52.128;9.278;2023-09-18T04:16:53;99748.47;;;19.37;100.00
38718;BME280;24468;52.128;9.278;2023-09-18T04:19:19;99741.97;;;19.38;100.00
38718;BME280;24468;52.128;9.278;2023-09-18T04:21:44;99734.06;;;19.35;100.00
38718;BME280;24468;52.128;9.278;2023-09-18T04:24:10;99724.00;;;19.26;100.00
38718;BME280;24468;52.128;9.278;2023-09-18T04:26:35;99718.50;;;19.36;100.00
38718;BME280;24468;52.128;9.278;2023-09-18T04:29:03;99708.88;;;19.31;100.00
38718;BME280;24468;52.128;9.278;2023-09-18T04:31:28;99703.69;;;19.38;100.00
38718;BME280;24468;52.128;9.278;2023-09-18T04:33:55;99686.69;;;19.35;100.00
38718;BME280;24468;52.128;9.278;2023-09-18T04:36:20;99691.75;;;19.10;100.00
38718;BME280;24468;52.128;9.278;2023-09-18T04:38:46;99686.56;;;19.07;100.00
38718;BME280;24468;52.128;9.278;2023-09-18T04:41:11;99680.22;;;18.87;100.00
38718;BME280;24468;52.128;9.278;2023-09-18T04:43:37;99668.56;;;19.04;100.00
38718;BME280;24468;52.128;9.278;2023-09-18T04:46:06;99674.75;;;18.97;100.00
38718;BME280;24468;52.128;9.278;2023-09-18T04:48:32;99688.69;;;19.62;100.00
38718;BME280;24468;52.128;9.278;2023-09-18T04:50:59;99682.03;;;19.74;100.00
38718;BME280;24468;52.128;9.278;2023-09-18T04:53:25;99697.25;;;19.96;100.00
38718;BME280;24468;52.128;9.278;2023-09-18T04:55:50;99687.38;;;20.13;100.00
38718;BME280;24468;52.128;9.278;2023-09-18T04:58:19;99670.47;;;19.99;100.00
38718;BME280;24468;52.128;9.278;2023-09-18T05:00:45;99673.50;;;19.96;100.00
38718;BME280;24468;52.128;9.278;2023-09-18T05:03:12;99683.25;;;20.09;100.00
38718;BME280;24468;52.128;9.278;2023-09-18T05:05:38;99668.72;;;19.98;100.00
38718;BME280;24468;52.128;9.278;2023-09-18T05:08:06;99672.16;;;20.10;100.00
38718;BME280;24468;52.128;9.278;2023-09-18T05:10:36;99675.22;;;19.97;100.00
38718;BME280;24468;52.128;9.278;2023-09-18T05:13:02;99671.03;;;19.93;100.00
38718;BME280;24468;52.128;9.278;2023-09-18T05:15:28;99679.38;;;20.02;100.00
38718;BME280;24468;52.128;9.278;2023-09-18T05:17:55;99682.63;;;20.15;100.00
38718;BME280;24468;52.128;9.278;2023-09-18T05:20:27;99675.19;;;20.35;100.00
38718;BME280;24468;52.128;9.278;2023-09-18T05:22:55;99666.16;;;20.52;100.00
38718;BME280;24468;52.128;9.278;2023-09-18T05:25:25;99666.75;;;20.56;100.00
38718;BME280;24468;52.128;9.278;2023-09-18T05:27:52;99659.25;;;20.58;100.00
38718;BME280;24468;52.128;9.278;2023-09-18T05:30:26;99652.50;;;20.70;100.00
38718;BME280;24468;52.128;9.278;2023-09-18T05:32:57;99645.25;;;20.79;100.00
38718;BME280;24468;52.128;9.278;2023-09-18T05:35:33;99648.31;;;20.94;100.00
38718;BME280;24468;52.128;9.278;2023-09-18T05:37:59;99641.72;;;21.04;100.00
38718;BME280;24468;52.128;9.278;2023-09-18T05:40:25;99628.28;;;21.19;100.00
38718;BME280;24468;52.128;9.278;2023-09-18T05:42:55;99633.38;;;21.32;100.00
38718;BME280;24468;52.128;9.278;2023-09-18T05:45:21;99634.34;;;21.41;100.00
38718;BME280;24468;52.128;9.278;2023-09-18T05:47:48;99628.13;;;21.39;100.00
38718;BME280;24468;52.128;9.278;2023-09-18T05:50:15;99623.69;;;21.38;100.00
38718;BME280;24468;52.128;9.278;2023-09-18T05:52:42;99619.28;;;21.45;100.00
38718;BME280;24468;52.128;9.278;2023-09-18T05:55:08;99606.91;;;21.41;100.00
38718;BME280;24468;52.128;9.278;2023-09-18T05:57:35;99590.34;;;21.50;100.00
38718;BME280;24468;52.128;9.278;2023-09-18T06:00:00;99585.72;;;21.51;100.00
38718;BME280;24468;52.128;9.278;2023-09-18T06:02:26;99571.34;;;21.57;100.00
38718;BME280;24468;52.128;9.278;2023-09-18T06:05:03;99570.66;;;21.63;100.00
38718;BME280;24468;52.128;9.278;2023-09-18T06:07:30;99574.50;;;21.70;100.00
38718;BME280;24468;52.128;9.278;2023-09-18T06:09:58;99574.69;;;21.77;100.00
38718;BME280;24468;52.128;9.278;2023-09-18T06:12:23;99563.94;;;21.84;100.00
38718;BME280;24468;52.128;9.278;2023-09-18T06:14:50;99567.34;;;21.78;100.00
38718;BME280;24468;52.128;9.278;2023-09-18T06:17:16;99557.69;;;21.73;100.00
38718;BME280;24468;52.128;9.278;2023-09-18T06:19:43;99557.44;;;21.93;100.00
38718;BME280;24468;52.128;9.278;2023-09-18T06:22:09;99562.78;;;21.94;100.00
38718;BME280;24468;52.128;9.278;2023-09-18T06:24:35;99553.00;;;22.00;100.00
38718;BME280;24468;52.128;9.278;2023-09-18T06:27:02;99551.94;;;21.93;100.00
38718;BME280;24468;52.128;9.278;2023-09-18T06:29:35;99550.44;;;22.07;100.00
38718;BME280;24468;52.128;9.278;2023-09-18T06:32:03;99551.50;;;22.06;100.00
38718;BME280;24468;52.128;9.278;2023-09-18T06:34:29;99556.53;;;22.18;100.00
38718;BME280;24468;52.128;9.278;2023-09-18T06:36:54;99571.00;;;22.37;100.00
38718;BME280;24468;52.128;9.278;2023-09-18T06:39:20;99570.34;;;22.43;100.00
38718;BME280;24468;52.128;9.278;2023-09-18T06:41:47;99570.38;;;22.59;100.00
38718;BME280;24468;52.128;9.278;2023-09-18T06:44:13;99568.34;;;22.78;100.00
38718;BME280;24468;52.128;9.278;2023-09-18T06:46:39;99567.28;;;22.79;100.00
38718;BME280;24468;52.128;9.278;2023-09-18T06:49:05;99573.16;;;22.84;100.00
38718;BME280;24468;52.128;9.278;2023-09-18T06:51:30;99567.16;;;22.89;100.00
38718;BME280;24468;52.128;9.278;2023-09-18T06:53:56;99555.31;;;22.96;100.00
38718;BME280;24468;52.128;9.278;2023-09-18T06:56:24;99558.91;;;22.89;100.00
38718;BME280;24468;52.128;9.278;2023-09-18T06:58:50;99553.38;;;22.80;100.00
38718;BME280;24468;52.128;9.278;2023-09-18T07:01:20;99564.94;;;23.00;100.00
38718;BME280;24468;52.128;9.278;2023-09-18T07:03:47;99571.97;;;23.19;100.00
38718;BME280;24468;52.128;9.278;2023-09-18T07:06:14;99589.34;;;23.12;100.00
38718;BME280;24468;52.128;9.278;2023-09-18T07:08:43;99596.19;;;22.91;100.00
38718;BME280;24468;52.128;9.278;2023-09-18T07:11:08;99596.59;;;23.21;100.00
38718;BME280;24468;52.128;9.278;2023-09-18T07:13:34;99600.03;;;23.15;100.00
38718;BME280;24468;52.128;9.278;2023-09-18T07:15:59;99586.91;;;23.41;100.00
38718;BME280;24468;52.128;9.278;2023-09-18T07:18:25;99595.16;;;23.58;100.00
38718;BME280;24468;52.128;9.278;2023-09-18T07:20:50;99589.84;;;23.56;100.00
38718;BME280;24468;52.128;9.278;2023-09-18T07:23:16;99593.41;;;23.81;100.00
38718;BME280;24468;52.128;9.278;2023-09-18T07:25:41;99587.19;;;23.87;100.00
38718;BME280;24468;52.128;9.278;2023-09-18T07:28:08;99590.59;;;23.98;100.00
38718;BME280;24468;52.128;9.278;2023-09-18T07:30:34;99596.44;;;24.03;100.00
38718;BME280;24468;52.128;9.278;2023-09-18T07:33:03;99592.25;;;24.15;100.00
38718;BME280;24468;52.128;9.278;2023-09-18T07:35:29;99594.13;;;24.23;100.00
38718;BME280;24468;52.128;9.278;2023-09-18T07:37:54;99589.59;;;24.30;100.00
38718;BME280;24468;52.128;9.278;2023-09-18T07:40:20;99590.06;;;24.50;100.00
38718;BME280;24468;52.128;9.278;2023-09-18T07:42:46;99584.66;;;24.56;100.00
38718;BME280;24468;52.128;9.278;2023-09-18T07:45:12;99594.22;;;23.98;100.00
38718;BME280;24468;52.128;9.278;2023-09-18T07:47:38;99600.75;;;24.36;100.00
38718;BME280;24468;52.128;9.278;2023-09-18T07:50:05;99613.59;;;24.60;100.00
38718;BME280;24468;52.128;9.278;2023-09-18T07:52:32;99609.53;;;24.40;100.00
38718;BME280;24468;52.128;9.278;2023-09-18T07:54:58;99615.34;;;24.14;100.00
38718;BME280;24468;52.128;9.278;2023-09-18T07:57:24;99618.59;;;24.17;100.00
38718;BME280;24468;52.128;9.278;2023-09-18T07:59:50;99622.19;;;24.18;100.00
38718;BME280;24468;52.128;9.278;2023-09-18T08:02:16;99612.16;;;24.33;100.00
38718;BME280;24468;52.128;9.278;2023-09-18T08:04:43;99609.69;;;23.99;100.00
38718;BME280;24468;52.128;9.278;2023-09-18T08:07:09;99627.47;;;24.36;100.00
38718;BME280;24468;52.128;9.278;2023-09-18T08:09:34;99615.41;;;24.37;100.00
38718;BME280;24468;52.128;9.278;2023-09-18T08:12:02;99618.16;;;24.37;100.00
38718;BME280;24468;52.128;9.278;2023-09-18T08:14:28;99613.59;;;24.13;100.00
38718;BME280;24468;52.128;9.278;2023-09-18T08:17:01;99624.72;;;23.64;100.00
38718;BME280;24468;52.128;9.278;2023-09-18T08:19:26;99620.75;;;23.91;100.00
38718;BME280;24468;52.128;9.278;2023-09-18T08:21:55;99619.53;;;23.93;100.00
38718;BME280;24468;52.128;9.278;2023-09-18T08:24:27;99605.94;;;24.00;100.00
38718;BME280;24468;52.128;9.278;2023-09-18T08:26:52;99599.22;;;24.34;100.00
38718;BME280;24468;52.128;9.278;2023-09-18T08:29:19;99604.94;;;24.24;100.00
38718;BME280;24468;52.128;9.278;2023-09-18T08:31:45;99604.47;;;24.21;100.00
38718;BME280;24468;52.128;9.278;2023-09-18T08:34:10;99596.63;;;24.32;100.00
38718;BME280;24468;52.128;9.278;2023-09-18T08:36:36;99605.88;;;24.16;100.00
38718;BME280;24468;52.128;9.278;2023-09-18T08:39:01;99617.09;;;24.38;100.00
38718;BME280;24468;52.128;9.278;2023-09-18T08:41:32;99611.09;;;24.34;100.00
38718;BME280;24468;52.128;9.278;2023-09-18T08:44:02;99616.41;;;24.52;100.00
38718;BME280;24468;52.128;9.278;2023-09-18T08:46:30;99612.28;;;24.40;100.00
38718;BME280;24468;52.128;9.278;2023-09-18T08:48:57;99626.72;;;24.11;100.00
38718;BME280;24468;52.128;9.278;2023-09-18T08:51:24;99621.22;;;24.81;100.00
38718;BME280;24468;52.128;9.278;2023-09-18T08:53:50;99614.56;;;24.99;100.00
38718;BME280;24468;52.128;9.278;2023-09-18T08:56:17;99615.88;;;25.03;100.00
38718;BME280;24468;52.128;9.278;2023-09-18T08:58:43;99618.69;;;24.95;100.00
38718;BME280;24468;52.128;9.278;2023-09-18T09:01:10;99619.75;;;24.94;100.00
38718;BME280;24468;52.128;9.278;2023-09-18T09:03:40;99619.13;;;25.06;100.00
38718;BME280;24468;52.128;9.278;2023-09-18T09:06:13;99621.13;;;24.67;100.00
38718;BME280;24468;52.128;9.278;2023-09-18T09:08:39;99630.41;;;24.74;100.00
38718;BME280;24468;52.128;9.278;2023-09-18T09:11:05;99622.16;;;24.97;100.00
38718;BME280;24468;52.128;9.278;2023-09-18T09:13:30;99621.03;;;25.06;100.00
38718;BME280;24468;52.128;9.278;2023-09-18T09:15:58;99630.91;;;24.77;100.00
38718;BME280;24468;52.128;9.278;2023-09-18T09:18:26;99637.84;;;24.65;100.00
38718;BME280;24468;52.128;9.278;2023-09-18T09:21:10;99642.38;;;24.89;100.00
38718;BME280;24468;52.128;9.278;2023-09-18T09:23:49;99637.03;;;24.56;100.00
38718;BME280;24468;52.128;9.278;2023-09-18T09:26:19;99647.88;;;24.66;100.00
38718;BME280;24468;52.128;9.278;2023-09-18T09:28:46;99650.72;;;24.50;100.00
38718;BME280;24468;52.128;9.278;2023-09-18T09:31:27;99636.84;;;24.66;100.00
38718;BME280;24468;52.128;9.278;2023-09-18T09:33:54;99628.28;;;24.53;100.00
38718;BME280;24468;52.128;9.278;2023-09-18T09:36:23;99645.06;;;24.74;100.00
38718;BME280;24468;52.128;9.278;2023-09-18T09:38:58;99631.69;;;24.63;100.00
38718;BME280;24468;52.128;9.278;2023-09-18T09:41:23;99636.72;;;24.43;100.00
38718;BME280;24468;52.128;9.278;2023-09-18T09:43:50;99634.47;;;24.86;100.00
38718;BME280;24468;52.128;9.278;2023-09-18T09:46:17;99641.03;;;24.85;100.00
38718;BME280;24468;52.128;9.278;2023-09-18T09:49:05;99639.34;;;24.36;100.00
38718;BME280;24468;52.128;9.278;2023-09-18T09:51:33;99644.84;;;24.53;100.00
38718;BME280;24468;52.128;9.278;2023-09-18T09:54:00;99636.91;;;24.50;100.00
38718;BME280;24468;52.128;9.278;2023-09-18T09:56:49;99640.59;;;24.26;100.00
38718;BME280;24468;52.128;9.278;2023-09-18T09:59:17;99648.75;;;24.19;100.00
38718;BME280;24468;52.128;9.278;2023-09-18T10:01:46;99635.50;;;24.54;100.00
38718;BME280;24468;52.128;9.278;2023-09-18T10:04:17;99631.00;;;24.61;100.00
38718;BME280;24468;52.128;9.278;2023-09-18T10:06:52;99624.22;;;24.95;100.00
38718;BME280;24468;52.128;9.278;2023-09-18T10:09:21;99627.47;;;24.98;100.00
38718;BME280;24468;52.128;9.278;2023-09-18T10:11:52;99640.34;;;25.06;100.00
38718;BME280;24468;52.128;9.278;2023-09-18T10:14:30;99655.94;;;24.68;100.00
38718;BME280;24468;52.128;9.278;2023-09-18T10:17:02;99653.38;;;24.66;100.00
38718;BME280;24468;52.128;9.278;2023-09-18T10:19:53;99652.91;;;24.85;100.00
38718;BME280;24468;52.128;9.278;2023-09-18T10:22:45;99646.41;;;24.78;100.00
38718;BME280;24468;52.128;9.278;2023-09-18T10:25:24;99649.31;;;25.08;100.00
38718;BME280;24468;52.128;9.278;2023-09-18T10:27:54;99652.44;;;24.82;100.00
38718;BME280;24468;52.128;9.278;2023-09-18T10:30:25;99647.38;;;25.17;100.00
38718;BME280;24468;52.128;9.278;2023-09-18T10:32:52;99652.13;;;25.00;100.00
38718;BME280;24468;52.128;9.278;2023-09-18T10:35:19;99634.09;;;25.20;100.00
38718;BME280;24468;52.128;9.278;2023-09-18T10:37:46;99632.16;;;25.59;100.00
38718;BME280;24468;52.128;9.278;2023-09-18T10:40:13;99639.41;;;26.12;100.00
38718;BME280;24468;52.128;9.278;2023-09-18T10:42:41;99642.88;;;25.62;100.00
38718;BME280;24468;52.128;9.278;2023-09-18T10:45:10;99648.69;;;25.29;100.00
38718;BME280;24468;52.128;9.278;2023-09-18T10:47:41;99654.25;;;24.90;100.00
38718;BME280;24468;52.128;9.278;2023-09-18T10:50:09;99664.59;;;24.17;100.00
38718;BME280;24468;52.128;9.278;2023-09-18T10:52:36;99669.94;;;24.10;100.00
38718;BME280;24468;52.128;9.278;2023-09-18T10:55:11;99673.63;;;23.86;100.00
38718;BME280;24468;52.128;9.278;2023-09-18T10:57:50;99670.22;;;24.32;100.00
38718;BME280;24468;52.128;9.278;2023-09-18T11:00:17;99668.59;;;24.54;100.00
38718;BME280;24468;52.128;9.278;2023-09-18T11:02:51;99659.75;;;24.67;100.00
38718;BME280;24468;52.128;9.278;2023-09-18T11:05:32;99660.88;;;24.80;100.00
38718;BME280;24468;52.128;9.278;2023-09-18T11:08:31;99655.78;;;25.23;100.00
38718;BME280;24468;52.128;9.278;2023-09-18T11:11:09;99662.13;;;25.01;100.00
38718;BME280;24468;52.128;9.278;2023-09-18T11:13:51;99666.84;;;24.92;100.00
38718;BME280;24468;52.128;9.278;2023-09-18T11:21:29;99656.09;;;24.74;100.00
38718;BME280;24468;52.128;9.278;2023-09-18T11:26:29;99652.94;;;24.46;100.00
38718;BME280;24468;52.128;9.278;2023-09-18T11:29:05;99648.34;;;24.30;100.00
38718;BME280;24468;52.128;9.278;2023-09-18T11:34:22;99665.59;;;24.16;100.00
38718;BME280;24468;52.128;9.278;2023-09-18T11:36:48;99668.91;;;24.11;100.00
38718;BME280;24468;52.128;9.278;2023-09-18T11:39:41;99646.22;;;24.01;100.00
38718;BME280;24468;52.128;9.278;2023-09-18T11:42:11;99669.06;;;24.18;100.00
38718;BME280;24468;52.128;9.278;2023-09-18T11:44:41;99676.88;;;23.98;100.00
38718;BME280;24468;52.128;9.278;2023-09-18T11:47:10;99688.22;;;24.03;100.00
38718;BME280;24468;52.128;9.278;2023-09-18T11:49:54;99685.47;;;24.03;100.00
38718;BME280;24468;52.128;9.278;2023-09-18T11:52:27;99681.38;;;23.83;100.00
38718;BME280;24468;52.128;9.278;2023-09-18T11:54:56;99675.31;;;24.04;100.00
38718;BME280;24468;52.128;9.278;2023-09-18T11:57:22;99672.84;;;24.25;100.00
38718;BME280;24468;52.128;9.278;2023-09-18T11:59:48;99686.78;;;24.24;100.00
38718;BME280;24468;52.128;9.278;2023-09-18T12:02:29;99680.59;;;24.22;100.00
38718;BME280;24468;52.128;9.278;2023-09-18T12:05:14;99676.97;;;24.21;100.00
38718;BME280;24468;52.128;9.278;2023-09-18T12:07:43;99689.31;;;24.41;100.00
38718;BME280;24468;52.128;9.278;2023-09-18T12:10:11;99688.28;;;24.34;100.00
38718;BME280;24468;52.128;9.278;2023-09-18T12:12:37;99694.81;;;24.50;100.00
38718;BME280;24468;52.128;9.278;2023-09-18T12:15:03;99695.53;;;25.06;100.00
38718;BME280;24468;52.128;9.278;2023-09-18T12:17:29;99676.91;;;24.85;100.00
38718;BME280;24468;52.128;9.278;2023-09-18T12:19:55;99679.13;;;24.81;100.00
38718;BME280;24468;52.128;9.278;2023-09-18T12:22:25;99676.41;;;24.73;100.00
38718;BME280;24468;52.128;9.278;2023-09-18T12:24:51;99676.31;;;25.44;100.00
38718;BME280;24468;52.128;9.278;2023-09-18T12:27:17;99681.78;;;24.75;100.00
38718;BME280;24468;52.128;9.278;2023-09-18T12:29:43;99677.97;;;24.76;100.00
38718;BME280;24468;52.128;9.278;2023-09-18T12:32:10;99666.28;;;24.97;100.00
38718;BME280;24468;52.128;9.278;2023-09-18T12:34:40;99673.81;;;24.80;100.00
38718;BME280;24468;52.128;9.278;2023-09-18T12:37:08;99665.53;;;24.80;100.00
38718;BME280;24468;52.128;9.278;2023-09-18T12:39:36;99664.78;;;25.17;100.00
38718;BME280;24468;52.128;9.278;2023-09-18T12:42:04;99663.13;;;24.46;100.00
38718;BME280;24468;52.128;9.278;2023-09-18T12:44:30;99655.03;;;24.75;100.00
38718;BME280;24468;52.128;9.278;2023-09-18T12:46:56;99650.50;;;24.51;100.00
38718;BME280;24468;52.128;9.278;2023-09-18T12:49:23;99651.00;;;25.09;100.00
38718;BME280;24468;52.128;9.278;2023-09-18T12:52:01;99655.53;;;24.48;100.00
38718;BME280;24468;52.128;9.278;2023-09-18T12:54:44;99645.81;;;24.91;100.00
38718;BME280;24468;52.128;9.278;2023-09-18T12:57:20;99650.88;;;24.48;100.00
38718;BME280;24468;52.128;9.278;2023-09-18T12:59:46;99649.13;;;24.55;100.00
38718;BME280;24468;52.128;9.278;2023-09-18T13:02:17;99654.22;;;24.27;100.00
38718;BME280;24468;52.128;9.278;2023-09-18T13:04:55;99648.41;;;24.61;100.00
38718;BME280;24468;52.128;9.278;2023-09-18T13:07:22;99644.06;;;24.67;100.00
38718;BME280;24468;52.128;9.278;2023-09-18T13:10:03;99638.13;;;24.78;100.00
38718;BME280;24468;52.128;9.278;2023-09-18T13:12:50;99647.97;;;25.04;100.00